Etusivu
METAR-TAF:

METAR-TAF

Lentoasemat :

Banská Bystrica, Slovakia

Leveyspiiri: 48-38-17N, Pituuspiiri: 019-08-03E, korkeus merenpinnasta: 318 m

METAR: puuttuu

Aika: 01:09 (23:09 UTC)

Sääennuste

Tämä raportti tehtiin 3 tuntia ja 39 minuuttia sitten, kello 19.30 UTC
Ennuste voimassa 13. päivästä klo 21 UTC - 14. päivään klo 06 UTC
Tuuli 2 kn eri suunnista
Näkyvyys 10 km tai enemmän
ei pilviä alle 1500 m:ssä eikä cumulonimbus-pilviä
Todennäköisyys 40% :
Ajoittain
13. päivästä klo 22 UTC - 14. päivään klo 03 UTC
Näkyvyys: 5000 m
Muutamia pilviä 3000 ft:n korkeudessa, Cumulonimbus.
Hajonneita pilviä 5000 ft:n korkeudessa
ukkosmyrsky, heikkoa sadetta
Todennäköisyys 30% :
Ajoittain
14. päivästä klo 04 UTC - 14. päivään klo 06 UTC
Näkyvyys: 0400 m
Hajonneita pilviä 100 ft:n korkeudessa
sumua,

TAF: LZSL 131930Z 1321/1406 VRB02KT CAVOK PROB40 TEMPO 1322/1403 5000 -TSRA FEW030CB BKN050 PROB30 TEMPO 1404/1406 0400 FG BKN001

Säähavainnot ja -ennusteet yli 4000 lentoasemalta (METAR- ja TAF-raportit).

Käytössä olevat sääasemat on merkitty karttaan keltaisilla ja punaisilla pisteillä.

Aseta hiiri pisteen päälle nähdäksesi sääaseman nimen.

Klikkaa sitten nähdäksesi säähavainnot ja -ennusteet.

Kartan vaihtaminen: klikkaa mustalla rastilla varustettuja vihreitä pisteitä, niin voit zoomata sisään; viivalla varustettua vihreää pistettä, niin voit zoomata ulos tai vihreitä nuolia, niin pääset viereisille kartoille.


METAR-TAF: